sensor_id;sensor_type;location;lat;lon;timestamp;temperature;humidity
71047;SHT31;58703;48.978;8.982;2023-03-11T00:00:26;2.91;76.92
71047;SHT31;58703;48.978;8.982;2023-03-11T00:02:54;2.84;77.39
71047;SHT31;58703;48.978;8.982;2023-03-11T00:05:23;2.79;78.24
71047;SHT31;58703;48.978;8.982;2023-03-11T00:07:49;2.76;78.51
71047;SHT31;58703;48.978;8.982;2023-03-11T00:10:18;2.75;77.92
71047;SHT31;58703;48.978;8.982;2023-03-11T00:12:44;2.70;78.70
71047;SHT31;58703;48.978;8.982;2023-03-11T00:15:11;2.67;78.63
71047;SHT31;58703;48.978;8.982;2023-03-11T00:17:36;2.59;79.51
71047;SHT31;58703;48.978;8.982;2023-03-11T00:20:03;2.56;79.76
71047;SHT31;58703;48.978;8.982;2023-03-11T00:22:29;2.46;80.29
71047;SHT31;58703;48.978;8.982;2023-03-11T00:24:56;2.46;80.42
71047;SHT31;58703;48.978;8.982;2023-03-11T00:27:21;2.40;81.06
71047;SHT31;58703;48.978;8.982;2023-03-11T00:29:47;2.46;80.40
71047;SHT31;58703;48.978;8.982;2023-03-11T00:32:12;2.43;80.83
71047;SHT31;58703;48.978;8.982;2023-03-11T00:34:38;2.45;81.07
71047;SHT31;58703;48.978;8.982;2023-03-11T00:37:03;2.43;81.14
71047;SHT31;58703;48.978;8.982;2023-03-11T00:39:29;2.36;82.14
71047;SHT31;58703;48.978;8.982;2023-03-11T00:41:54;2.36;81.75
71047;SHT31;58703;48.978;8.982;2023-03-11T00:44:21;2.45;80.91
71047;SHT31;58703;48.978;8.982;2023-03-11T00:46:48;2.42;81.52
71047;SHT31;58703;48.978;8.982;2023-03-11T00:49:14;2.33;82.36
71047;SHT31;58703;48.978;8.982;2023-03-11T00:51:39;2.30;82.19
71047;SHT31;58703;48.978;8.982;2023-03-11T00:54:05;2.30;82.26
71047;SHT31;58703;48.978;8.982;2023-03-11T00:56:30;2.25;83.18
71047;SHT31;58703;48.978;8.982;2023-03-11T00:58:56;2.08;84.76
71047;SHT31;58703;48.978;8.982;2023-03-11T01:01:21;2.12;84.85
71047;SHT31;58703;48.978;8.982;2023-03-11T01:03:47;2.15;84.90
71047;SHT31;58703;48.978;8.982;2023-03-11T01:06:13;2.11;84.57
71047;SHT31;58703;48.978;8.982;2023-03-11T01:08:39;2.12;85.22
71047;SHT31;58703;48.978;8.982;2023-03-11T01:11:06;2.12;85.42
71047;SHT31;58703;48.978;8.982;2023-03-11T01:13:32;2.08;85.94
71047;SHT31;58703;48.978;8.982;2023-03-11T01:15:58;2.15;83.57
71047;SHT31;58703;48.978;8.982;2023-03-11T01:18:24;2.11;84.36
71047;SHT31;58703;48.978;8.982;2023-03-11T01:20:50;2.07;83.11
71047;SHT31;58703;48.978;8.982;2023-03-11T01:23:17;2.04;80.70
71047;SHT31;58703;48.978;8.982;2023-03-11T01:25:43;2.07;80.84
71047;SHT31;58703;48.978;8.982;2023-03-11T01:28:09;2.07;80.64
71047;SHT31;58703;48.978;8.982;2023-03-11T01:30:38;2.02;80.97
71047;SHT31;58703;48.978;8.982;2023-03-11T01:33:05;1.99;79.58
71047;SHT31;58703;48.978;8.982;2023-03-11T01:35:32;1.93;80.63
71047;SHT31;58703;48.978;8.982;2023-03-11T01:37:58;1.94;80.33
71047;SHT31;58703;48.978;8.982;2023-03-11T01:43:00;1.88;81.94
71047;SHT31;58703;48.978;8.982;2023-03-11T01:48:14;1.74;83.31
71047;SHT31;58703;48.978;8.982;2023-03-11T01:50:46;1.73;82.23
71047;SHT31;58703;48.978;8.982;2023-03-11T01:53:15;1.68;81.94
71047;SHT31;58703;48.978;8.982;2023-03-11T01:55:42;1.67;81.35
71047;SHT31;58703;48.978;8.982;2023-03-11T01:58:11;1.67;81.03
71047;SHT31;58703;48.978;8.982;2023-03-11T02:00:38;1.61;81.89
71047;SHT31;58703;48.978;8.982;2023-03-11T02:03:10;1.57;82.11
71047;SHT31;58703;48.978;8.982;2023-03-11T02:05:39;1.53;81.91
71047;SHT31;58703;48.978;8.982;2023-03-11T02:08:05;1.43;82.75
71047;SHT31;58703;48.978;8.982;2023-03-11T02:10:31;1.30;83.29
71047;SHT31;58703;48.978;8.982;2023-03-11T02:12:57;1.23;83.73
71047;SHT31;58703;48.978;8.982;2023-03-11T02:15:23;1.17;83.62
71047;SHT31;58703;48.978;8.982;2023-03-11T02:17:49;1.20;83.28
71047;SHT31;58703;48.978;8.982;2023-03-11T02:23:07;1.04;84.27
71047;SHT31;58703;48.978;8.982;2023-03-11T02:25:38;1.04;84.28
71047;SHT31;58703;48.978;8.982;2023-03-11T02:28:09;1.00;84.14
71047;SHT31;58703;48.978;8.982;2023-03-11T02:30:38;0.91;84.56
71047;SHT31;58703;48.978;8.982;2023-03-11T02:33:05;0.96;84.16
71047;SHT31;58703;48.978;8.982;2023-03-11T02:35:31;0.92;83.70
71047;SHT31;58703;48.978;8.982;2023-03-11T02:37:56;0.95;82.98
71047;SHT31;58703;48.978;8.982;2023-03-11T02:42:49;0.78;83.86
71047;SHT31;58703;48.978;8.982;2023-03-11T02:45:17;0.78;83.27
71047;SHT31;58703;48.978;8.982;2023-03-11T02:47:43;0.66;83.36
71047;SHT31;58703;48.978;8.982;2023-03-11T02:50:11;0.58;83.39
71047;SHT31;58703;48.978;8.982;2023-03-11T02:52:37;0.71;82.06
71047;SHT31;58703;48.978;8.982;2023-03-11T02:55:03;0.66;82.47
71047;SHT31;58703;48.978;8.982;2023-03-11T02:57:29;0.52;82.91
71047;SHT31;58703;48.978;8.982;2023-03-11T02:59:54;0.42;83.14
71047;SHT31;58703;48.978;8.982;2023-03-11T03:02:20;0.44;82.90
71047;SHT31;58703;48.978;8.982;2023-03-11T03:04:46;0.61;81.43
71047;SHT31;58703;48.978;8.982;2023-03-11T03:07:11;0.41;82.51
71047;SHT31;58703;48.978;8.982;2023-03-11T03:09:37;0.36;82.47
71047;SHT31;58703;48.978;8.982;2023-03-11T03:12:03;0.34;81.97
71047;SHT31;58703;48.978;8.982;2023-03-11T03:14:29;0.40;81.50
71047;SHT31;58703;48.978;8.982;2023-03-11T03:16:55;0.31;81.73
71047;SHT31;58703;48.978;8.982;2023-03-11T03:19:21;0.20;81.90
71047;SHT31;58703;48.978;8.982;2023-03-11T03:21:47;0.22;81.50
71047;SHT31;58703;48.978;8.982;2023-03-11T03:24:12;0.21;80.91
71047;SHT31;58703;48.978;8.982;2023-03-11T03:26:38;0.07;81.52
71047;SHT31;58703;48.978;8.982;2023-03-11T03:29:04;0.09;81.11
71047;SHT31;58703;48.978;8.982;2023-03-11T03:31:30;-0.06;82.14
71047;SHT31;58703;48.978;8.982;2023-03-11T03:33:56;-0.15;82.12
71047;SHT31;58703;48.978;8.982;2023-03-11T03:36:22;-0.07;81.13
71047;SHT31;58703;48.978;8.982;2023-03-11T03:38:48;-0.09;81.38
71047;SHT31;58703;48.978;8.982;2023-03-11T03:41:17;-0.15;81.70
71047;SHT31;58703;48.978;8.982;2023-03-11T03:43:42;-0.27;82.27
71047;SHT31;58703;48.978;8.982;2023-03-11T03:46:08;-0.14;81.40
71047;SHT31;58703;48.978;8.982;2023-03-11T03:48:33;-0.18;81.53
71047;SHT31;58703;48.978;8.982;2023-03-11T03:51:08;-0.33;82.40
71047;SHT31;58703;48.978;8.982;2023-03-11T03:53:35;-0.27;81.84
71047;SHT31;58703;48.978;8.982;2023-03-11T03:56:04;-0.17;81.28
71047;SHT31;58703;48.978;8.982;2023-03-11T03:58:30;-0.35;82.50
71047;SHT31;58703;48.978;8.982;2023-03-11T04:00:57;-0.20;81.79
71047;SHT31;58703;48.978;8.982;2023-03-11T04:03:25;-0.13;81.24
71047;SHT31;58703;48.978;8.982;2023-03-11T04:05:51;-0.15;81.70
71047;SHT31;58703;48.978;8.982;2023-03-11T04:08:16;-0.21;81.92
71047;SHT31;58703;48.978;8.982;2023-03-11T04:10:42;-0.17;81.78
71047;SHT31;58703;48.978;8.982;2023-03-11T04:13:08;-0.07;81.20
71047;SHT31;58703;48.978;8.982;2023-03-11T04:15:36;-0.10;81.22
71047;SHT31;58703;48.978;8.982;2023-03-11T04:18:02;-0.21;81.86
71047;SHT31;58703;48.978;8.982;2023-03-11T04:20:27;-0.07;80.98
71047;SHT31;58703;48.978;8.982;2023-03-11T04:22:53;-0.11;81.41
71047;SHT31;58703;48.978;8.982;2023-03-11T04:25:18;-0.18;81.78
71047;SHT31;58703;48.978;8.982;2023-03-11T04:27:44;-0.41;83.10
71047;SHT31;58703;48.978;8.982;2023-03-11T04:30:11;-0.45;83.39
71047;SHT31;58703;48.978;8.982;2023-03-11T04:32:37;-0.57;84.18
71047;SHT31;58703;48.978;8.982;2023-03-11T04:35:04;-0.58;84.83
71047;SHT31;58703;48.978;8.982;2023-03-11T04:37:30;-0.51;85.13
71047;SHT31;58703;48.978;8.982;2023-03-11T04:39:55;-0.45;85.40
71047;SHT31;58703;48.978;8.982;2023-03-11T04:42:21;-0.45;85.66
71047;SHT31;58703;48.978;8.982;2023-03-11T04:44:46;-0.41;85.50
71047;SHT31;58703;48.978;8.982;2023-03-11T04:47:12;-0.40;85.86
71047;SHT31;58703;48.978;8.982;2023-03-11T04:49:37;-0.42;85.55
71047;SHT31;58703;48.978;8.982;2023-03-11T04:52:03;-0.40;85.41
71047;SHT31;58703;48.978;8.982;2023-03-11T04:54:29;-0.50;85.52
71047;SHT31;58703;48.978;8.982;2023-03-11T04:56:54;-0.57;85.83
71047;SHT31;58703;48.978;8.982;2023-03-11T04:59:20;-0.88;86.39
71047;SHT31;58703;48.978;8.982;2023-03-11T05:01:45;-0.92;87.28
71047;SHT31;58703;48.978;8.982;2023-03-11T05:04:11;-1.10;88.48
71047;SHT31;58703;48.978;8.982;2023-03-11T05:06:37;-1.19;88.83
71047;SHT31;58703;48.978;8.982;2023-03-11T05:09:03;-1.02;87.64
71047;SHT31;58703;48.978;8.982;2023-03-11T05:11:29;-0.93;87.70
71047;SHT31;58703;48.978;8.982;2023-03-11T05:13:55;-0.99;87.39
71047;SHT31;58703;48.978;8.982;2023-03-11T05:16:20;-1.16;87.83
71047;SHT31;58703;48.978;8.982;2023-03-11T05:18:46;-1.27;88.93
71047;SHT31;58703;48.978;8.982;2023-03-11T05:21:12;-1.43;89.66
71047;SHT31;58703;48.978;8.982;2023-03-11T05:23:38;-1.32;89.07
71047;SHT31;58703;48.978;8.982;2023-03-11T05:26:04;-1.44;89.31
71047;SHT31;58703;48.978;8.982;2023-03-11T05:28:29;-1.61;89.99
71047;SHT31;58703;48.978;8.982;2023-03-11T05:30:55;-1.85;90.81
71047;SHT31;58703;48.978;8.982;2023-03-11T05:33:21;-1.78;91.90
71047;SHT31;58703;48.978;8.982;2023-03-11T05:35:46;-1.71;91.54
71047;SHT31;58703;48.978;8.982;2023-03-11T05:38:12;-1.61;90.94
71047;SHT31;58703;48.978;8.982;2023-03-11T05:40:38;-1.43;90.86
71047;SHT31;58703;48.978;8.982;2023-03-11T05:43:03;-1.40;90.45
71047;SHT31;58703;48.978;8.982;2023-03-11T05:45:29;-1.07;88.96
71047;SHT31;58703;48.978;8.982;2023-03-11T05:47:54;-1.12;89.04
71047;SHT31;58703;48.978;8.982;2023-03-11T05:50:20;-1.25;89.64
71047;SHT31;58703;48.978;8.982;2023-03-11T05:52:45;-1.32;89.90
71047;SHT31;58703;48.978;8.982;2023-03-11T05:55:11;-1.48;91.04
71047;SHT31;58703;48.978;8.982;2023-03-11T05:57:37;-1.61;91.56
71047;SHT31;58703;48.978;8.982;2023-03-11T06:00:05;-1.72;92.45
71047;SHT31;58703;48.978;8.982;2023-03-11T06:02:39;-1.80;92.93
71047;SHT31;58703;48.978;8.982;2023-03-11T06:05:06;-1.74;93.29
71047;SHT31;58703;48.978;8.982;2023-03-11T06:07:34;-1.72;93.46
71047;SHT31;58703;48.978;8.982;2023-03-11T06:10:00;-1.61;93.39
71047;SHT31;58703;48.978;8.982;2023-03-11T06:12:25;-1.60;92.06
71047;SHT31;58703;48.978;8.982;2023-03-11T06:14:52;-1.53;91.69
71047;SHT31;58703;48.978;8.982;2023-03-11T06:17:18;-1.40;91.74
71047;SHT31;58703;48.978;8.982;2023-03-11T06:19:43;-1.29;91.16
71047;SHT31;58703;48.978;8.982;2023-03-11T06:22:09;-1.30;91.07
71047;SHT31;58703;48.978;8.982;2023-03-11T06:24:35;-1.20;91.27
71047;SHT31;58703;48.978;8.982;2023-03-11T06:27:01;-1.17;90.97
71047;SHT31;58703;48.978;8.982;2023-03-11T06:29:27;-1.17;90.59
71047;SHT31;58703;48.978;8.982;2023-03-11T06:31:53;-1.16;90.65
71047;SHT31;58703;48.978;8.982;2023-03-11T06:34:19;-1.03;90.37
71047;SHT31;58703;48.978;8.982;2023-03-11T06:36:44;-0.96;90.01
71047;SHT31;58703;48.978;8.982;2023-03-11T06:39:14;-0.86;90.32
71047;SHT31;58703;48.978;8.982;2023-03-11T06:41:40;-0.86;90.22
71047;SHT31;58703;48.978;8.982;2023-03-11T06:44:06;-0.86;89.84
71047;SHT31;58703;48.978;8.982;2023-03-11T06:46:31;-0.86;90.32
71047;SHT31;58703;48.978;8.982;2023-03-11T06:48:57;-0.81;90.17
71047;SHT31;58703;48.978;8.982;2023-03-11T06:51:22;-0.76;89.38
71047;SHT31;58703;48.978;8.982;2023-03-11T06:53:50;-0.62;88.61
71047;SHT31;58703;48.978;8.982;2023-03-11T06:56:16;-0.51;88.27
71047;SHT31;58703;48.978;8.982;2023-03-11T06:58:42;-0.50;88.73
71047;SHT31;58703;48.978;8.982;2023-03-11T07:03:39;-0.31;87.88
71047;SHT31;58703;48.978;8.982;2023-03-11T07:06:06;-0.17;86.79
71047;SHT31;58703;48.978;8.982;2023-03-11T07:08:34;-0.01;85.72
71047;SHT31;58703;48.978;8.982;2023-03-11T07:11:04;0.21;85.98
71047;SHT31;58703;48.978;8.982;2023-03-11T07:13:30;0.40;84.45
71047;SHT31;58703;48.978;8.982;2023-03-11T07:16:06;0.44;83.72
71047;SHT31;58703;48.978;8.982;2023-03-11T07:18:33;0.47;83.11
71047;SHT31;58703;48.978;8.982;2023-03-11T07:21:04;0.57;83.75
71047;SHT31;58703;48.978;8.982;2023-03-11T07:23:31;0.73;84.45
71047;SHT31;58703;48.978;8.982;2023-03-11T07:25:57;0.95;83.58
71047;SHT31;58703;48.978;8.982;2023-03-11T07:28:23;0.85;81.47
71047;SHT31;58703;48.978;8.982;2023-03-11T07:30:49;0.99;81.25
71047;SHT31;58703;48.978;8.982;2023-03-11T07:33:15;1.24;80.82
71047;SHT31;58703;48.978;8.982;2023-03-11T07:35:41;1.30;79.33
71047;SHT31;58703;48.978;8.982;2023-03-11T07:38:07;1.37;79.43
71047;SHT31;58703;48.978;8.982;2023-03-11T07:40:33;1.60;78.16
71047;SHT31;58703;48.978;8.982;2023-03-11T07:42:59;1.75;78.55
71047;SHT31;58703;48.978;8.982;2023-03-11T07:45:24;1.98;77.21
71047;SHT31;58703;48.978;8.982;2023-03-11T07:47:51;2.08;76.10
71047;SHT31;58703;48.978;8.982;2023-03-11T07:50:16;2.11;76.44
71047;SHT31;58703;48.978;8.982;2023-03-11T07:52:42;2.15;76.79
71047;SHT31;58703;48.978;8.982;2023-03-11T07:55:08;2.18;75.03
71047;SHT31;58703;48.978;8.982;2023-03-11T07:57:34;2.04;75.59
71047;SHT31;58703;48.978;8.982;2023-03-11T08:00:00;2.40;75.33
71047;SHT31;58703;48.978;8.982;2023-03-11T08:02:26;2.48;75.13
71047;SHT31;58703;48.978;8.982;2023-03-11T08:04:51;2.79;74.55
71047;SHT31;58703;48.978;8.982;2023-03-11T08:07:17;2.67;74.28
71047;SHT31;58703;48.978;8.982;2023-03-11T08:09:42;2.54;75.48
71047;SHT31;58703;48.978;8.982;2023-03-11T08:12:08;2.69;74.25
71047;SHT31;58703;48.978;8.982;2023-03-11T08:14:33;2.42;73.98
71047;SHT31;58703;48.978;8.982;2023-03-11T08:16:59;2.75;73.33
71047;SHT31;58703;48.978;8.982;2023-03-11T08:19:24;2.99;73.28
71047;SHT31;58703;48.978;8.982;2023-03-11T08:21:50;3.01;72.36
71047;SHT31;58703;48.978;8.982;2023-03-11T08:24:15;3.52;73.55
71047;SHT31;58703;48.978;8.982;2023-03-11T08:26:41;3.17;71.29
71047;SHT31;58703;48.978;8.982;2023-03-11T08:29:07;2.89;72.95
71047;SHT31;58703;48.978;8.982;2023-03-11T08:31:33;3.00;72.86
71047;SHT31;58703;48.978;8.982;2023-03-11T08:34:02;3.48;73.82
71047;SHT31;58703;48.978;8.982;2023-03-11T08:36:28;3.32;71.93
71047;SHT31;58703;48.978;8.982;2023-03-11T08:38:54;2.83;72.62
71047;SHT31;58703;48.978;8.982;2023-03-11T08:41:19;3.07;72.33
71047;SHT31;58703;48.978;8.982;2023-03-11T08:43:45;3.00;70.89
71047;SHT31;58703;48.978;8.982;2023-03-11T08:46:29;3.21;71.55
71047;SHT31;58703;48.978;8.982;2023-03-11T08:48:55;3.18;71.62
71047;SHT31;58703;48.978;8.982;2023-03-11T08:51:22;3.75;71.40
71047;SHT31;58703;48.978;8.982;2023-03-11T08:53:47;4.05;69.58
71047;SHT31;58703;48.978;8.982;2023-03-11T08:56:13;4.62;71.41
71047;SHT31;58703;48.978;8.982;2023-03-11T08:58:38;3.79;70.31
71047;SHT31;58703;48.978;8.982;2023-03-11T09:01:05;3.63;69.87
71047;SHT31;58703;48.978;8.982;2023-03-11T09:03:32;3.24;71.46
71047;SHT31;58703;48.978;8.982;2023-03-11T09:05:59;3.27;70.76
71047;SHT31;58703;48.978;8.982;2023-03-11T09:08:25;3.42;71.03
71047;SHT31;58703;48.978;8.982;2023-03-11T09:10:50;3.71;69.79
71047;SHT31;58703;48.978;8.982;2023-03-11T09:13:16;4.26;69.16
71047;SHT31;58703;48.978;8.982;2023-03-11T09:15:41;4.16;68.41
71047;SHT31;58703;48.978;8.982;2023-03-11T09:18:11;3.15;69.25
71047;SHT31;58703;48.978;8.982;2023-03-11T09:20:37;4.05;70.24
71047;SHT31;58703;48.978;8.982;2023-03-11T09:23:04;4.60;69.39
71047;SHT31;58703;48.978;8.982;2023-03-11T09:25:29;4.67;69.50
71047;SHT31;58703;48.978;8.982;2023-03-11T09:27:55;4.54;68.53
71047;SHT31;58703;48.978;8.982;2023-03-11T09:30:20;4.51;66.86
71047;SHT31;58703;48.978;8.982;2023-03-11T09:32:46;4.69;67.06
71047;SHT31;58703;48.978;8.982;2023-03-11T09:35:11;4.65;68.31
71047;SHT31;58703;48.978;8.982;2023-03-11T09:37:37;4.82;66.64
71047;SHT31;58703;48.978;8.982;2023-03-11T09:40:03;5.75;65.93
71047;SHT31;58703;48.978;8.982;2023-03-11T09:43:03;6.00;61.80
71047;SHT31;58703;48.978;8.982;2023-03-11T09:45:34;5.60;63.13
71047;SHT31;58703;48.978;8.982;2023-03-11T09:50:52;5.36;63.64
71047;SHT31;58703;48.978;8.982;2023-03-11T09:53:49;5.70;62.63
71047;SHT31;58703;48.978;8.982;2023-03-11T09:56:21;5.93;64.05
71047;SHT31;58703;48.978;8.982;2023-03-11T09:58:54;6.08;59.88
71047;SHT31;58703;48.978;8.982;2023-03-11T10:01:41;6.32;58.86
71047;SHT31;58703;48.978;8.982;2023-03-11T10:04:25;5.89;58.26
71047;SHT31;58703;48.978;8.982;2023-03-11T10:06:54;5.97;60.76
71047;SHT31;58703;48.978;8.982;2023-03-11T10:09:35;6.04;63.41
71047;SHT31;58703;48.978;8.982;2023-03-11T10:12:13;5.12;61.76
71047;SHT31;58703;48.978;8.982;2023-03-11T10:20:13;6.75;59.02
71047;SHT31;58703;48.978;8.982;2023-03-11T10:22:46;6.04;56.80
71047;SHT31;58703;48.978;8.982;2023-03-11T10:25:24;4.93;61.04
71047;SHT31;58703;48.978;8.982;2023-03-11T10:28:10;4.68;64.30
71047;SHT31;58703;48.978;8.982;2023-03-11T10:30:59;4.48;63.44
71047;SHT31;58703;48.978;8.982;2023-03-11T10:36:00;4.72;63.85
71047;SHT31;58703;48.978;8.982;2023-03-11T10:38:41;5.07;64.56
71047;SHT31;58703;48.978;8.982;2023-03-11T10:41:16;6.08;68.18
71047;SHT31;58703;48.978;8.982;2023-03-11T10:43:51;6.83;62.15
71047;SHT31;58703;48.978;8.982;2023-03-11T10:46:28;7.04;56.59
71047;SHT31;58703;48.978;8.982;2023-03-11T10:48:54;7.04;55.10
71047;SHT31;58703;48.978;8.982;2023-03-11T10:51:22;7.32;55.61
71047;SHT31;58703;48.978;8.982;2023-03-11T10:53:53;6.46;58.37
71047;SHT31;58703;48.978;8.982;2023-03-11T10:56:36;6.65;59.68
71047;SHT31;58703;48.978;8.982;2023-03-11T10:59:17;6.11;56.43
71047;SHT31;58703;48.978;8.982;2023-03-11T11:01:53;5.69;58.93
71047;SHT31;58703;48.978;8.982;2023-03-11T11:04:37;5.95;61.47
71047;SHT31;58703;48.978;8.982;2023-03-11T11:07:35;5.09;59.80
71047;SHT31;58703;48.978;8.982;2023-03-11T11:10:23;4.88;60.90
71047;SHT31;58703;48.978;8.982;2023-03-11T11:12:56;5.01;62.16
71047;SHT31;58703;48.978;8.982;2023-03-11T11:17:47;5.33;60.17
71047;SHT31;58703;48.978;8.982;2023-03-11T11:20:18;5.32;59.01
71047;SHT31;58703;48.978;8.982;2023-03-11T11:22:51;5.16;57.27
71047;SHT31;58703;48.978;8.982;2023-03-11T11:25:31;5.86;58.45
71047;SHT31;58703;48.978;8.982;2023-03-11T11:28:15;5.04;57.47
71047;SHT31;58703;48.978;8.982;2023-03-11T11:30:55;4.85;57.60
71047;SHT31;58703;48.978;8.982;2023-03-11T11:33:27;4.57;56.82
71047;SHT31;58703;48.978;8.982;2023-03-11T11:35:56;4.99;55.52
71047;SHT31;58703;48.978;8.982;2023-03-11T11:38:23;6.39;53.70
71047;SHT31;58703;48.978;8.982;2023-03-11T11:40:50;7.54;50.95
71047;SHT31;58703;48.978;8.982;2023-03-11T11:43:53;7.31;53.07
71047;SHT31;58703;48.978;8.982;2023-03-11T11:46:26;6.62;51.04
71047;SHT31;58703;48.978;8.982;2023-03-11T11:49:01;5.90;52.77
71047;SHT31;58703;48.978;8.982;2023-03-11T11:51:33;5.98;59.29
71047;SHT31;58703;48.978;8.982;2023-03-11T11:54:22;6.90;55.70
71047;SHT31;58703;48.978;8.982;2023-03-11T11:56:49;7.41;54.82
71047;SHT31;58703;48.978;8.982;2023-03-11T11:59:16;8.03;56.11
71047;SHT31;58703;48.978;8.982;2023-03-11T12:01:50;7.71;54.05
71047;SHT31;58703;48.978;8.982;2023-03-11T12:10:13;7.18;51.27
71047;SHT31;58703;48.978;8.982;2023-03-11T12:18:39;7.20;55.24
71047;SHT31;58703;48.978;8.982;2023-03-11T12:21:32;7.28;53.73
71047;SHT31;58703;48.978;8.982;2023-03-11T12:24:41;7.68;53.23
71047;SHT31;58703;48.978;8.982;2023-03-11T12:27:16;6.96;53.06
71047;SHT31;58703;48.978;8.982;2023-03-11T12:29:45;6.56;53.08
71047;SHT31;58703;48.978;8.982;2023-03-11T12:32:32;6.20;54.90
71047;SHT31;58703;48.978;8.982;2023-03-11T12:35:13;6.45;54.92
71047;SHT31;58703;48.978;8.982;2023-03-11T12:37:44;7.06;56.67
71047;SHT31;58703;48.978;8.982;2023-03-11T12:46:14;6.64;52.24
71047;SHT31;58703;48.978;8.982;2023-03-11T12:48:57;6.77;52.65
71047;SHT31;58703;48.978;8.982;2023-03-11T12:54:30;6.41;51.55
71047;SHT31;58703;48.978;8.982;2023-03-11T13:05:56;6.64;49.28
71047;SHT31;58703;48.978;8.982;2023-03-11T13:08:25;6.69;50.08
71047;SHT31;58703;48.978;8.982;2023-03-11T13:10:52;7.23;49.09
71047;SHT31;58703;48.978;8.982;2023-03-11T13:15:53;8.17;49.83
71047;SHT31;58703;48.978;8.982;2023-03-11T13:18:22;6.66;52.31
71047;SHT31;58703;48.978;8.982;2023-03-11T13:20:51;7.08;49.34
71047;SHT31;58703;48.978;8.982;2023-03-11T13:23:32;7.30;51.41
71047;SHT31;58703;48.978;8.982;2023-03-11T13:31:38;7.61;51.26
71047;SHT31;58703;48.978;8.982;2023-03-11T13:34:13;6.80;50.78
71047;SHT31;58703;48.978;8.982;2023-03-11T13:36:48;7.68;49.67
71047;SHT31;58703;48.978;8.982;2023-03-11T13:41:50;7.30;49.68
71047;SHT31;58703;48.978;8.982;2023-03-11T13:44:27;7.83;50.17
71047;SHT31;58703;48.978;8.982;2023-03-11T13:47:08;7.11;47.98
71047;SHT31;58703;48.978;8.982;2023-03-11T13:49:49;7.14;49.45
71047;SHT31;58703;48.978;8.982;2023-03-11T13:53:05;6.68;49.97
71047;SHT31;58703;48.978;8.982;2023-03-11T13:55:27;8.81;51.44
71047;SHT31;58703;48.978;8.982;2023-03-11T13:57:56;8.59;47.31
71047;SHT31;58703;48.978;8.982;2023-03-11T14:00:24;8.28;49.22
71047;SHT31;58703;48.978;8.982;2023-03-11T14:02:58;8.29;48.92
71047;SHT31;58703;48.978;8.982;2023-03-11T14:05:26;9.04;46.35
71047;SHT31;58703;48.978;8.982;2023-03-11T14:07:54;9.48;46.41
71047;SHT31;58703;48.978;8.982;2023-03-11T14:10:21;8.63;47.62
71047;SHT31;58703;48.978;8.982;2023-03-11T14:12:47;7.43;49.24
71047;SHT31;58703;48.978;8.982;2023-03-11T14:15:20;7.98;51.06
71047;SHT31;58703;48.978;8.982;2023-03-11T14:17:48;8.46;47.32
71047;SHT31;58703;48.978;8.982;2023-03-11T14:20:19;10.14;45.51
71047;SHT31;58703;48.978;8.982;2023-03-11T14:22:48;9.62;44.11
71047;SHT31;58703;48.978;8.982;2023-03-11T14:25:23;10.44;42.32
71047;SHT31;58703;48.978;8.982;2023-03-11T14:27:53;10.71;44.11
71047;SHT31;58703;48.978;8.982;2023-03-11T14:30:22;10.07;44.35
71047;SHT31;58703;48.978;8.982;2023-03-11T14:33:04;10.75;44.08
71047;SHT31;58703;48.978;8.982;2023-03-11T14:35:32;8.78;46.05
71047;SHT31;58703;48.978;8.982;2023-03-11T14:37:58;8.92;47.08
71047;SHT31;58703;48.978;8.982;2023-03-11T14:40:25;8.84;48.25
71047;SHT31;58703;48.978;8.982;2023-03-11T14:42:53;7.85;48.95
71047;SHT31;58703;48.978;8.982;2023-03-11T14:45:22;8.26;50.74
71047;SHT31;58703;48.978;8.982;2023-03-11T14:50:39;8.16;50.66
71047;SHT31;58703;48.978;8.982;2023-03-11T14:53:14;8.40;50.50
71047;SHT31;58703;48.978;8.982;2023-03-11T15:00:54;8.39;50.45
71047;SHT31;58703;48.978;8.982;2023-03-11T15:03:25;8.28;48.46
71047;SHT31;58703;48.978;8.982;2023-03-11T15:05:53;8.94;47.65
71047;SHT31;58703;48.978;8.982;2023-03-11T15:08:22;9.38;48.84
71047;SHT31;58703;48.978;8.982;2023-03-11T15:13:32;7.82;49.08
71047;SHT31;58703;48.978;8.982;2023-03-11T15:16:00;8.75;47.19
71047;SHT31;58703;48.978;8.982;2023-03-11T15:18:31;7.99;47.35
71047;SHT31;58703;48.978;8.982;2023-03-11T15:23:38;8.57;48.17
71047;SHT31;58703;48.978;8.982;2023-03-11T15:26:17;8.22;48.44
71047;SHT31;58703;48.978;8.982;2023-03-11T15:28:44;7.85;49.07
71047;SHT31;58703;48.978;8.982;2023-03-11T15:33:44;6.99;51.85
71047;SHT31;58703;48.978;8.982;2023-03-11T15:36:30;6.61;52.13
71047;SHT31;58703;48.978;8.982;2023-03-11T15:39:10;6.34;53.36
71047;SHT31;58703;48.978;8.982;2023-03-11T15:41:39;6.44;53.22
71047;SHT31;58703;48.978;8.982;2023-03-11T15:44:24;6.46;52.42
71047;SHT31;58703;48.978;8.982;2023-03-11T15:46:52;6.17;54.06
71047;SHT31;58703;48.978;8.982;2023-03-11T15:49:18;5.93;53.35
71047;SHT31;58703;48.978;8.982;2023-03-11T15:51:43;6.01;57.01
71047;SHT31;58703;48.978;8.982;2023-03-11T15:54:09;6.20;57.03
71047;SHT31;58703;48.978;8.982;2023-03-11T15:56:34;5.81;55.26
71047;SHT31;58703;48.978;8.982;2023-03-11T15:59:00;5.70;54.10
71047;SHT31;58703;48.978;8.982;2023-03-11T16:01:27;5.61;55.67
71047;SHT31;58703;48.978;8.982;2023-03-11T16:03:53;5.86;55.14
71047;SHT31;58703;48.978;8.982;2023-03-11T16:06:19;6.25;54.63
71047;SHT31;58703;48.978;8.982;2023-03-11T16:08:47;6.25;52.19
71047;SHT31;58703;48.978;8.982;2023-03-11T16:11:13;6.13;53.19
71047;SHT31;58703;48.978;8.982;2023-03-11T16:13:39;6.04;54.48
71047;SHT31;58703;48.978;8.982;2023-03-11T16:16:05;5.73;53.63
71047;SHT31;58703;48.978;8.982;2023-03-11T16:18:30;5.73;54.18
71047;SHT31;58703;48.978;8.982;2023-03-11T16:20:56;5.71;54.87
71047;SHT31;58703;48.978;8.982;2023-03-11T16:23:24;5.69;56.67
71047;SHT31;58703;48.978;8.982;2023-03-11T16:25:54;5.53;55.03
71047;SHT31;58703;48.978;8.982;2023-03-11T16:28:21;5.42;53.76
71047;SHT31;58703;48.978;8.982;2023-03-11T16:30:49;5.44;53.20
71047;SHT31;58703;48.978;8.982;2023-03-11T16:33:14;5.33;52.13
71047;SHT31;58703;48.978;8.982;2023-03-11T16:35:40;5.23;51.84
71047;SHT31;58703;48.978;8.982;2023-03-11T16:38:06;5.26;52.87
71047;SHT31;58703;48.978;8.982;2023-03-11T16:40:32;5.32;55.92
71047;SHT31;58703;48.978;8.982;2023-03-11T16:43:07;5.39;55.26
71047;SHT31;58703;48.978;8.982;2023-03-11T16:45:32;5.30;54.56
71047;SHT31;58703;48.978;8.982;2023-03-11T16:47:58;5.29;55.02
71047;SHT31;58703;48.978;8.982;2023-03-11T16:50:24;5.39;58.06
71047;SHT31;58703;48.978;8.982;2023-03-11T16:52:51;5.23;56.80
71047;SHT31;58703;48.978;8.982;2023-03-11T16:55:17;5.22;56.08
71047;SHT31;58703;48.978;8.982;2023-03-11T16:57:43;5.05;56.53
71047;SHT31;58703;48.978;8.982;2023-03-11T17:00:10;4.92;56.12
71047;SHT31;58703;48.978;8.982;2023-03-11T17:02:36;4.91;58.64
71047;SHT31;58703;48.978;8.982;2023-03-11T17:05:02;4.89;56.17
71047;SHT31;58703;48.978;8.982;2023-03-11T17:07:29;4.85;55.37
71047;SHT31;58703;48.978;8.982;2023-03-11T17:09:57;4.81;56.70
71047;SHT31;58703;48.978;8.982;2023-03-11T17:12:22;4.67;56.45
71047;SHT31;58703;48.978;8.982;2023-03-11T17:14:50;4.51;57.03